createdAt,value
2016-05-27T00:00:02.621Z,80.58
2016-05-27T00:01:02.452Z,80.29
2016-05-27T00:02:02.611Z,80.67
2016-05-27T00:03:02.598Z,80.29
2016-05-27T00:04:03.742Z,80.67
2016-05-27T00:05:02.572Z,80
2016-05-27T00:06:02.559Z,80.87
2016-05-27T00:07:02.547Z,80.38
2016-05-27T00:08:02.533Z,80.58
2016-05-27T00:09:02.520Z,80.87
2016-05-27T00:10:02.508Z,80.77
2016-05-27T00:11:02.494Z,80.29
2016-05-27T00:12:02.482Z,80.58
2016-05-27T00:13:02.468Z,80.48
2016-05-27T00:14:02.456Z,81.15
2016-05-27T00:15:02.443Z,80.96
2016-05-27T00:16:02.429Z,81.44
2016-05-27T00:17:02.416Z,80.96
2016-05-27T00:18:02.404Z,81.05
2016-05-27T00:19:02.235Z,81.25
2016-05-27T00:20:02.379Z,81.44
2016-05-27T00:21:02.365Z,81.73
2016-05-27T00:22:02.351Z,81.73
2016-05-27T00:23:02.339Z,81.63
2016-05-27T00:24:02.327Z,82.3
2016-05-27T00:25:02.329Z,82.3
2016-05-27T00:26:02.145Z,82.2
2016-05-27T00:27:02.287Z,81.73
2016-05-27T00:28:02.275Z,82.4
2016-05-27T00:29:02.277Z,82.11
2016-05-27T00:30:02.248Z,82.4
2016-05-27T00:31:02.251Z,82.3
2016-05-27T00:32:02.223Z,83.12
2016-05-27T00:33:02.209Z,83.03
2016-05-27T00:34:02.197Z,82.97
2016-05-27T00:35:02.027Z,82.4
2016-05-27T00:36:02.186Z,83.06
2016-05-27T00:37:02.158Z,82.97
2016-05-27T00:38:02.145Z,82.68
2016-05-27T00:39:02.147Z,83.16
2016-05-27T00:40:02.119Z,82.97
2016-05-27T00:41:02.122Z,82.4
2016-05-27T00:42:02.093Z,83.26
2016-05-27T00:43:02.080Z,82.97
2016-05-27T00:44:02.068Z,82.87
2016-05-27T00:45:02.071Z,83.73
2016-05-27T00:46:02.057Z,83.54
2016-05-27T00:47:02.029Z,82.97
2016-05-27T00:48:02.031Z,83.36
2016-05-27T00:49:02.019Z,82.78
2016-05-27T00:50:02.005Z,83.36
2016-05-27T00:51:01.993Z,82.97
2016-05-27T00:52:01.979Z,82.97
2016-05-27T00:53:01.967Z,82.4
2016-05-27T00:54:01.954Z,83.26
2016-05-27T00:55:01.940Z,82.59
2016-05-27T00:56:01.912Z,83.16
2016-05-27T00:57:01.915Z,82.97
2016-05-27T00:58:01.901Z,83.26
2016-05-27T00:59:01.890Z,82.49
2016-05-27T01:00:01.876Z,83.06
2016-05-27T01:01:01.863Z,82.78
2016-05-27T01:02:01.851Z,82.78
2016-05-27T01:03:01.884Z,82.97
2016-05-27T01:04:01.840Z,83.26
2016-05-27T01:05:01.811Z,82.78
2016-05-27T01:06:01.798Z,82.97
2016-05-27T01:07:01.801Z,83.26
2016-05-27T01:08:01.772Z,83.73
2016-05-27T01:09:01.760Z,83.54
2016-05-27T01:10:01.746Z,83.64
2016-05-27T01:11:01.733Z,83.83
2016-05-27T01:12:01.721Z,83.83
2016-05-27T01:13:01.724Z,83.54
2016-05-27T01:14:01.695Z,83.26
2016-05-27T01:15:01.697Z,83.83
2016-05-27T01:16:01.513Z,83.64
2016-05-27T01:17:01.672Z,84.12
2016-05-27T01:18:01.644Z,83.83
2016-05-27T01:19:01.662Z,83.64
2016-05-27T01:20:01.633Z,83.64
2016-05-27T01:21:01.620Z,83.16
2016-05-27T01:22:01.592Z,83.45
2016-05-27T01:23:01.578Z,83.64
2016-05-27T01:24:01.409Z,84.22
2016-05-27T01:25:01.568Z,83.54
2016-05-27T01:26:01.556Z,84.02
2016-05-27T01:27:01.543Z,83.64
2016-05-27T01:28:01.530Z,84.31
2016-05-27T01:29:01.517Z,84.41
2016-05-27T01:30:01.504Z,83.83
2016-05-27T01:31:01.490Z,83.73
2016-05-27T01:32:01.478Z,84.02
2016-05-27T01:33:01.465Z,84.31
2016-05-27T01:34:01.609Z,84.12
2016-05-27T01:35:01.439Z,83.73
2016-05-27T01:36:01.425Z,83.36
2016-05-27T01:37:01.414Z,83.54
2016-05-27T01:38:01.400Z,83.54
2016-05-27T01:39:01.387Z,83.64
2016-05-27T01:40:01.374Z,83.83
2016-05-27T01:41:01.361Z,83.64
2016-05-27T01:42:01.349Z,83.54
2016-05-27T01:43:01.336Z,83.64
2016-05-27T01:44:01.322Z,84.41
2016-05-27T01:45:01.310Z,83.73
2016-05-27T01:46:01.297Z,83.93
2016-05-27T01:47:01.283Z,83.64
2016-05-27T01:48:01.115Z,83.73
2016-05-27T01:49:01.276Z,83.26
2016-05-27T01:50:01.282Z,84.41
2016-05-27T01:51:01.289Z,84.22
2016-05-27T01:52:01.295Z,84.12
2016-05-27T01:53:01.286Z,83.93
2016-05-27T01:54:01.306Z,84.5
2016-05-27T01:55:01.300Z,84.12
2016-05-27T01:56:01.293Z,84.22
2016-05-27T01:57:01.288Z,83.73
2016-05-27T01:58:01.267Z,83.93
2016-05-27T01:59:01.275Z,83.93
2016-05-27T02:00:01.265Z,84.31
2016-05-27T02:01:01.099Z,84.41
2016-05-27T02:02:01.244Z,84.22
2016-05-27T02:03:01.078Z,84.22
2016-05-27T02:04:01.411Z,84.22
2016-05-27T02:05:01.211Z,84.41
2016-05-27T02:06:01.199Z,84.12
2016-05-27T02:07:01.188Z,84.59
2016-05-27T02:08:01.176Z,84.27
2016-05-27T02:09:01.162Z,84.02
2016-05-27T02:10:01.151Z,83.73
2016-05-27T02:11:01.137Z,84.12
2016-05-27T02:12:01.141Z,84.69
2016-05-27T02:13:01.113Z,84.55
2016-05-27T02:14:01.099Z,84.94
2016-05-27T02:15:01.087Z,84.69
2016-05-27T02:16:01.074Z,84.46
2016-05-27T02:17:01.061Z,84.84
2016-05-27T02:18:00.889Z,84.75
2016-05-27T02:19:01.036Z,85.03
2016-05-27T02:20:01.038Z,84.5
2016-05-27T02:21:01.009Z,84.65
2016-05-27T02:22:00.993Z,84.55
2016-05-27T02:23:00.981Z,84.65
2016-05-27T02:24:00.968Z,84.84
2016-05-27T02:25:00.955Z,84.65
2016-05-27T02:26:00.942Z,83.79
2016-05-27T02:27:00.945Z,84.65
2016-05-27T02:28:00.915Z,85.13
2016-05-27T02:29:00.918Z,84.65
2016-05-27T02:30:00.906Z,84.94
2016-05-27T02:31:00.893Z,85.03
2016-05-27T02:32:00.880Z,85.61
2016-05-27T02:33:00.851Z,85.32
2016-05-27T02:34:00.853Z,85.13
2016-05-27T02:35:00.670Z,85.22
2016-05-27T02:36:00.828Z,85.22
2016-05-27T02:37:00.644Z,85.51
2016-05-27T02:38:00.786Z,85.71
2016-05-27T02:39:00.775Z,85.22
2016-05-27T02:40:00.777Z,85.41
2016-05-27T02:41:00.747Z,85.41
2016-05-27T02:42:00.735Z,85.03
2016-05-27T02:43:00.722Z,85.51
2016-05-27T02:44:00.709Z,85.51
2016-05-27T02:45:00.712Z,85.99
2016-05-27T02:46:00.683Z,86.28
2016-05-27T02:47:00.685Z,85.99
2016-05-27T02:48:00.673Z,86.18
2016-05-27T02:49:00.676Z,85.71
2016-05-27T02:50:00.663Z,86.08
2016-05-27T02:51:00.635Z,86.28
2016-05-27T02:52:00.605Z,85.89
2016-05-27T02:53:00.608Z,85.8
2016-05-27T02:54:00.596Z,85.61
2016-05-27T02:55:00.410Z,85.89
2016-05-27T02:56:00.585Z,86.08
2016-05-27T02:57:00.557Z,86.66
2016-05-27T02:58:00.543Z,86.66
2016-05-27T02:59:00.390Z,86.47
2016-05-27T03:00:00.518Z,85.8
2016-05-27T03:01:00.505Z,85.8
2016-05-27T03:02:00.493Z,86.08
2016-05-27T03:03:00.479Z,86.28
2016-05-27T03:04:00.342Z,86.18
2016-05-27T03:05:00.453Z,85.89
2016-05-27T03:06:00.440Z,85.89
2016-05-27T03:07:00.428Z,85.8
2016-05-27T03:08:00.415Z,86.66
2016-05-27T03:09:00.401Z,86.47
2016-05-27T03:10:00.389Z,86.08
2016-05-27T03:11:00.376Z,85.89
2016-05-27T03:12:00.363Z,86.08
2016-05-27T03:13:00.350Z,86.47
2016-05-27T03:14:00.336Z,86.28
2016-05-27T03:15:00.325Z,86.28
2016-05-27T03:16:00.311Z,85.89
2016-05-27T03:17:00.330Z,86.08
2016-05-27T03:18:00.285Z,86.08
2016-05-27T03:19:00.272Z,86.57
2016-05-27T03:20:00.260Z,85.89
2016-05-27T03:21:00.263Z,86.57
2016-05-27T03:22:00.077Z,86.94
2016-05-27T03:23:00.268Z,86.28
2016-05-27T03:24:00.052Z,86.85
2016-05-27T03:25:00.194Z,86.37
2016-05-27T03:26:00.182Z,86.18
2016-05-27T03:27:00.168Z,87.04
2016-05-27T03:28:00.156Z,86.66
2016-05-27T03:29:00.143Z,86.57
2016-05-27T03:30:00.130Z,86.37
2016-05-27T03:31:00.132Z,86.66
2016-05-27T03:32:00.104Z,86.76
2016-05-27T03:33:00.107Z,86.57
2016-05-27T03:34:00.156Z,86.85
2016-05-27T03:35:00.065Z,86.08
2016-05-27T03:36:00.068Z,86.57
2016-05-27T03:37:00.039Z,86.57
2016-05-27T03:38:00.042Z,87.04
2016-05-27T03:39:00.029Z,87.43
2016-05-27T03:40:00.016Z,86.66
2016-05-27T03:41:00.003Z,86.66
2016-05-27T03:41:59.834Z,86.47
2016-05-27T03:42:59.962Z,86.57
2016-05-27T03:43:59.964Z,86.66
2016-05-27T03:44:59.952Z,86.57
2016-05-27T03:45:59.923Z,86.18
2016-05-27T03:46:59.925Z,86.47
2016-05-27T03:47:59.913Z,86.66
2016-05-27T03:48:59.900Z,86.66
2016-05-27T03:49:59.871Z,86.66
2016-05-27T03:50:59.874Z,86.85
2016-05-27T03:51:59.861Z,86.37
2016-05-27T03:52:59.848Z,87.04
2016-05-27T03:53:59.663Z,86.94
2016-05-27T03:54:59.650Z,86.85
2016-05-27T03:55:59.793Z,86.76
2016-05-27T03:56:59.780Z,87.43
2016-05-27T03:57:59.612Z,87.33
2016-05-27T03:58:59.770Z,86.85
2016-05-27T03:59:59.757Z,86.94
2016-05-27T04:00:59.573Z,86.28
2016-05-27T04:01:59.731Z,87.23
2016-05-27T04:02:59.703Z,86.23
2016-05-27T04:03:59.721Z,86.94
2016-05-27T04:04:59.537Z,86.76
2016-05-27T04:05:59.664Z,86.57
2016-05-27T04:06:59.667Z,86.57
2016-05-27T04:07:59.654Z,87.62
2016-05-27T04:08:59.641Z,87.43
2016-05-27T04:09:59.612Z,88.72
2016-05-27T04:10:59.615Z,87.71
2016-05-27T04:11:59.446Z,88.09
2016-05-27T04:12:59.589Z,87.81
2016-05-27T04:13:59.576Z,87.71
2016-05-27T04:14:59.547Z,88.09
2016-05-27T04:15:59.550Z,88
2016-05-27T04:16:59.522Z,87.43
2016-05-27T04:17:59.541Z,87.62
2016-05-27T04:18:59.730Z,87.62
2016-05-27T04:19:59.499Z,87.62
2016-05-27T04:20:59.486Z,88.19
2016-05-27T04:21:59.472Z,88.48
2016-05-27T04:22:59.460Z,88.09
2016-05-27T04:23:59.447Z,87.9
2016-05-27T04:24:59.449Z,88
2016-05-27T04:25:59.422Z,87.9
2016-05-27T04:26:59.393Z,88.86
2016-05-27T04:27:59.395Z,88.48
2016-05-27T04:28:59.366Z,88.86
2016-05-27T04:29:59.369Z,89.05
2016-05-27T04:30:59.356Z,88.76
2016-05-27T04:31:59.343Z,90.1
2016-05-27T04:32:59.331Z,89.53
2016-05-27T04:33:59.161Z,89.1
2016-05-27T04:34:59.336Z,89.15
2016-05-27T04:35:59.307Z,89.43
2016-05-27T04:36:59.278Z,89.62
2016-05-27T04:37:59.265Z,89.72
2016-05-27T04:38:59.268Z,90.2
2016-05-27T04:39:59.240Z,90.3
2016-05-27T04:40:59.242Z,89.53
2016-05-27T04:41:59.214Z,90.3
2016-05-27T04:42:59.201Z,90.1
2016-05-27T04:43:59.189Z,89.62
2016-05-27T04:44:59.175Z,90.96
2016-05-27T04:45:59.178Z,90.92
2016-05-27T04:46:59.150Z,90.87
2016-05-27T04:47:59.136Z,91.25
2016-05-27T04:48:59.311Z,90.82
2016-05-27T04:49:59.110Z,90.77
2016-05-27T04:50:59.097Z,91.53
2016-05-27T04:51:59.085Z,92.02
2016-05-27T04:52:58.916Z,91.78
2016-05-27T04:53:59.058Z,91.78
2016-05-27T04:54:59.046Z,91.83
2016-05-27T04:55:59.033Z,90.82
2016-05-27T04:56:59.020Z,90.82
2016-05-27T04:57:59.038Z,91.63
2016-05-27T04:58:59.010Z,91.53
2016-05-27T04:59:58.997Z,91.25
2016-05-27T05:00:58.968Z,90.87
2016-05-27T05:01:58.955Z,91.3
2016-05-27T05:02:58.957Z,90.82
2016-05-27T05:03:58.992Z,90.25
2016-05-27T05:04:58.917Z,91.11
2016-05-27T05:05:58.903Z,90.96
2016-05-27T05:06:58.890Z,90.87
2016-05-27T05:07:58.878Z,90.67
2016-05-27T05:08:58.865Z,91.49
2016-05-27T05:09:58.851Z,91.44
2016-05-27T05:10:58.839Z,91.06
2016-05-27T05:11:58.826Z,91.02
2016-05-27T05:12:58.814Z,91.44
2016-05-27T05:13:58.801Z,90.96
2016-05-27T05:14:58.787Z,91.06
2016-05-27T05:15:58.775Z,90.87
2016-05-27T05:16:58.761Z,91.53
2016-05-27T05:17:58.592Z,91.83
2016-05-27T05:18:58.736Z,91.35
2016-05-27T05:19:58.722Z,91.63
2016-05-27T05:20:58.710Z,90.87
2016-05-27T05:21:58.712Z,91.63
2016-05-27T05:22:58.683Z,91.92
2016-05-27T05:23:58.671Z,91.63
2016-05-27T05:24:58.658Z,92.3
2016-05-27T05:25:58.644Z,91.83
2016-05-27T05:26:58.632Z,91.25
2016-05-27T05:27:58.463Z,91.11
2016-05-27T05:28:58.607Z,90.77
2016-05-27T05:29:58.438Z,91.92
2016-05-27T05:30:58.579Z,90.96
2016-05-27T05:31:58.583Z,91.06
2016-05-27T05:32:58.555Z,91.16
2016-05-27T05:33:58.557Z,91.25
2016-05-27T05:34:58.544Z,91.73
2016-05-27T05:35:58.532Z,91.44
2016-05-27T05:36:58.518Z,91.35
2016-05-27T05:37:58.490Z,91.44
2016-05-27T05:38:58.321Z,91.06
2016-05-27T05:39:58.479Z,90.96
2016-05-27T05:40:58.451Z,90.77
2016-05-27T05:41:58.437Z,90.87
2016-05-27T05:42:58.441Z,91.92
2016-05-27T05:43:58.428Z,91.73
2016-05-27T05:44:58.414Z,91.59
2016-05-27T05:45:58.402Z,91.25
2016-05-27T05:46:58.389Z,90.96
2016-05-27T05:47:58.360Z,91.59
2016-05-27T05:48:58.363Z,91.63
2016-05-27T05:49:58.334Z,91.35
2016-05-27T05:50:58.337Z,92.02
2016-05-27T05:51:58.324Z,91.97
2016-05-27T05:52:58.311Z,92.21
2016-05-27T05:53:58.282Z,91.83
2016-05-27T05:54:58.114Z,92.11
2016-05-27T05:55:58.272Z,92.78
2016-05-27T05:56:58.260Z,92.11
2016-05-27T05:57:58.246Z,92.02
2016-05-27T05:58:58.233Z,92.11
2016-05-27T05:59:58.221Z,92.45
2016-05-27T06:00:58.208Z,92.07
2016-05-27T06:01:58.196Z,92.07
2016-05-27T06:02:58.182Z,92.21
2016-05-27T06:03:58.169Z,92.3
2016-05-27T06:04:58.156Z,92.3
2016-05-27T06:05:58.143Z,92.16
2016-05-27T06:06:58.755Z,92.11
2016-05-27T06:07:58.118Z,91.53
2016-05-27T06:08:58.104Z,92.49
2016-05-27T06:09:58.092Z,92.16
2016-05-27T06:10:58.079Z,91.92
2016-05-27T06:11:58.159Z,91.44
2016-05-27T06:12:57.895Z,91.63
2016-05-27T06:13:58.040Z,92.02
2016-05-27T06:14:57.870Z,92.11
2016-05-27T06:15:57.858Z,92.02
2016-05-27T06:16:58.000Z,91.73
2016-05-27T06:17:57.989Z,91.68
2016-05-27T06:18:57.834Z,92.02
2016-05-27T06:19:57.805Z,91.92
2016-05-27T06:20:57.950Z,91.63
2016-05-27T06:21:59.577Z,91.63
2016-05-27T06:22:57.923Z,92.21
2016-05-27T06:23:57.910Z,92.11
2016-05-27T06:24:57.897Z,92.11
2016-05-27T06:25:57.744Z,91.92
2016-05-27T06:26:57.887Z,92.02
2016-05-27T06:27:57.858Z,92.02
2016-05-27T06:28:57.846Z,91.83
2016-05-27T06:29:57.864Z,91.92
2016-05-27T06:30:57.819Z,91.92
2016-05-27T06:31:57.807Z,91.63
2016-05-27T06:32:57.794Z,91.92
2016-05-27T06:33:57.796Z,92.02
2016-05-27T06:34:57.627Z,92.4
2016-05-27T06:35:57.755Z,91.83
2016-05-27T06:36:57.742Z,91.92
2016-05-27T06:37:57.745Z,92.3
2016-05-27T06:38:57.732Z,92.3
2016-05-27T06:39:57.703Z,92.3
2016-05-27T06:40:57.691Z,92.21
2016-05-27T06:41:57.678Z,92.11
2016-05-27T06:42:57.664Z,92.49
2016-05-27T06:43:57.668Z,92.4
2016-05-27T06:44:57.639Z,91.83
2016-05-27T06:45:57.625Z,91.92
2016-05-27T06:46:57.612Z,91.63
2016-05-27T06:47:57.615Z,91.44
2016-05-27T06:48:57.603Z,91.92
2016-05-27T06:49:57.589Z,91.63
2016-05-27T06:50:57.577Z,91.44
2016-05-27T06:51:57.564Z,91.06
2016-05-27T06:52:57.410Z,90.96
2016-05-27T06:53:57.538Z,91.16
2016-05-27T06:54:57.525Z,91.92
2016-05-27T06:55:57.511Z,91.25
2016-05-27T06:56:57.500Z,91.25
2016-05-27T06:57:57.486Z,91.16
2016-05-27T06:58:57.474Z,92.02
2016-05-27T06:59:57.444Z,91.53
2016-05-27T07:00:57.446Z,91.83
2016-05-27T07:01:57.435Z,91.53
2016-05-27T07:02:57.422Z,90.96
2016-05-27T07:03:57.487Z,91.35
2016-05-27T07:04:57.395Z,91.83
2016-05-27T07:05:57.383Z,91.92
2016-05-27T07:06:57.370Z,92.11
2016-05-27T07:07:57.356Z,91.53
2016-05-27T07:08:57.344Z,91.83
2016-05-27T07:09:57.331Z,91.25
2016-05-27T07:10:57.318Z,91.44
2016-05-27T07:11:57.304Z,90.96
2016-05-27T07:12:57.292Z,91.06
2016-05-27T07:13:57.279Z,91.35
2016-05-27T07:14:57.281Z,92.21
2016-05-27T07:15:57.269Z,92.3
2016-05-27T07:16:57.240Z,91.83
2016-05-27T07:17:57.086Z,91.25
2016-05-27T07:18:57.231Z,92.3
2016-05-27T07:19:57.233Z,91.68
2016-05-27T07:20:57.189Z,91.77
2016-05-27T07:21:57.191Z,91.68
2016-05-27T07:22:57.179Z,92.25
2016-05-27T07:23:57.166Z,92.25
2016-05-27T07:24:57.152Z,92.16
2016-05-27T07:25:57.155Z,92.16
2016-05-27T07:26:57.330Z,91.3
2016-05-27T07:27:57.114Z,91.01
2016-05-27T07:28:57.100Z,90.91
2016-05-27T07:29:56.932Z,91.2
2016-05-27T07:30:57.075Z,90.72
2016-05-27T07:31:57.063Z,90.91
2016-05-27T07:32:57.049Z,90.15
2016-05-27T07:33:57.051Z,90.53
2016-05-27T07:34:57.039Z,89.76
2016-05-27T07:35:57.041Z,89.72
2016-05-27T07:36:56.997Z,89.72
2016-05-27T07:37:56.985Z,89.72
2016-05-27T07:38:56.987Z,88.95
2016-05-27T07:39:56.958Z,89.43
2016-05-27T07:40:56.962Z,89.52
2016-05-27T07:41:56.932Z,89.14
2016-05-27T07:42:56.935Z,89.04
2016-05-27T07:43:56.922Z,88.85
2016-05-27T07:44:56.910Z,88.95
2016-05-27T07:45:56.895Z,88.66
2016-05-27T07:46:56.868Z,88.9
2016-05-27T07:47:56.887Z,89.09
2016-05-27T07:48:56.717Z,89.09
2016-05-27T07:49:57.266Z,87.27
2016-05-27T07:50:56.832Z,87.74
2016-05-27T07:51:56.834Z,87.37
2016-05-27T07:52:56.836Z,87.37
2016-05-27T07:53:56.808Z,88.03
2016-05-27T07:54:56.639Z,87.74
2016-05-27T07:55:56.782Z,88.03
2016-05-27T07:56:56.785Z,87.08
2016-05-27T07:57:56.788Z,87.37
2016-05-27T07:58:56.744Z,87.17
2016-05-27T07:59:56.746Z,87.31
2016-05-27T08:00:56.719Z,86.45
2016-05-27T08:01:56.721Z,86.93
2016-05-27T08:02:56.707Z,87.12
2016-05-27T08:03:56.898Z,87.21
2016-05-27T08:04:56.682Z,87.02
2016-05-27T08:05:56.669Z,86.25
2016-05-27T08:06:56.656Z,86.35
2016-05-27T08:07:56.659Z,86.35
2016-05-27T08:08:56.629Z,86.25
2016-05-27T08:09:56.633Z,86.64
2016-05-27T08:10:56.620Z,85.68
2016-05-27T08:11:56.466Z,86.64
2016-05-27T08:12:56.593Z,84.82
2016-05-27T08:13:56.582Z,85.97
2016-05-27T08:14:56.568Z,86.07
2016-05-27T08:15:56.571Z,85.21
2016-05-27T08:16:56.558Z,85.58
2016-05-27T08:17:56.561Z,85.49
2016-05-27T08:18:56.767Z,85.78
2016-05-27T08:19:56.987Z,86.16
2016-05-27T08:20:56.506Z,85.63
2016-05-27T08:21:56.353Z,84.86
2016-05-27T08:22:56.495Z,85.72
2016-05-27T08:23:56.484Z,85.05
2016-05-27T08:24:56.486Z,83.61
2016-05-27T08:25:56.457Z,83.85
2016-05-27T08:26:56.460Z,81.4
2016-05-27T08:27:56.447Z,78.94
2016-05-27T08:28:56.434Z,78.55
2016-05-27T08:29:56.436Z,80.38
2016-05-27T08:30:56.424Z,77.98
2016-05-27T08:31:56.411Z,78.36
2016-05-27T08:32:56.397Z,78.65
2016-05-27T08:33:56.432Z,76.15
2016-05-27T08:34:56.841Z,76
2016-05-27T08:35:56.375Z,76
2016-05-27T08:36:56.362Z,77.11
2016-05-27T08:37:56.349Z,77.11
2016-05-27T08:38:56.351Z,78.17
2016-05-27T08:39:56.338Z,77.78
2016-05-27T08:40:56.326Z,77.69
2016-05-27T08:41:56.157Z,78.27
2016-05-27T08:42:56.315Z,78.32
2016-05-27T08:43:56.302Z,79.09
2016-05-27T08:44:56.290Z,79.67
2016-05-27T08:45:56.276Z,78.99
2016-05-27T08:46:56.279Z,78.03
2016-05-27T08:47:56.267Z,77.75
2016-05-27T08:48:56.284Z,78.8
2016-05-27T08:49:56.256Z,78.8
2016-05-27T08:50:56.478Z,80.24
2016-05-27T08:51:56.231Z,78.7
2016-05-27T08:52:56.234Z,79.47
2016-05-27T08:53:56.220Z,80.73
2016-05-27T08:54:56.051Z,80.63
2016-05-27T08:55:56.209Z,80.73
2016-05-27T08:56:56.025Z,80.34
2016-05-27T08:57:56.184Z,80.15
2016-05-27T08:58:56.171Z,79.19
2016-05-27T08:59:56.174Z,80.43
2016-05-27T09:00:56.379Z,80.43
2016-05-27T09:01:56.148Z,80.15
2016-05-27T09:02:55.994Z,80.34
2016-05-27T09:03:56.856Z,81.01
2016-05-27T09:04:56.344Z,81.4
2016-05-27T09:05:56.111Z,79.96
2016-05-27T09:06:56.099Z,79.96
2016-05-27T09:07:56.102Z,78.7
2016-05-27T09:08:56.088Z,79.76
2016-05-27T09:09:55.919Z,80.24
2016-05-27T09:10:56.063Z,80.82
2016-05-27T09:11:56.049Z,80.82
2016-05-27T09:12:56.052Z,80.91
2016-05-27T09:13:56.039Z,81.05
2016-05-27T09:14:56.027Z,81.24
2016-05-27T09:15:56.029Z,80.57
2016-05-27T09:16:56.000Z,80.38
2016-05-27T09:17:56.018Z,80.57
2016-05-27T09:18:56.007Z,80.38
2016-05-27T09:19:56.368Z,79.9
2016-05-27T09:20:55.964Z,79.67
2016-05-27T09:21:55.967Z,80.34
2016-05-27T09:22:55.953Z,79.57
2016-05-27T09:23:55.942Z,80.24
2016-05-27T09:24:55.945Z,79.47
2016-05-27T09:25:55.931Z,81.4
2016-05-27T09:26:55.918Z,80.91
2016-05-27T09:27:55.905Z,80.91
2016-05-27T09:28:55.908Z,79.96
2016-05-27T09:29:55.895Z,79.86
2016-05-27T09:30:55.882Z,79.96
2016-05-27T09:31:55.869Z,79.99
2016-05-27T09:32:55.888Z,79.86
2016-05-27T09:33:55.858Z,80.24
2016-05-27T09:34:55.861Z,79.86
2016-05-27T09:35:56.114Z,79.9
2016-05-27T09:36:55.852Z,78.94
2016-05-27T09:37:55.822Z,79.42
2016-05-27T09:38:55.810Z,78.36
2016-05-27T09:39:55.797Z,77.59
2016-05-27T09:40:56.284Z,78.94
2016-05-27T09:41:55.787Z,79.8
2016-05-27T09:42:55.790Z,78.55
2016-05-27T09:43:55.760Z,78.84
2016-05-27T09:44:55.763Z,79.03
2016-05-27T09:45:55.766Z,79.03
2016-05-27T09:46:55.737Z,77.59
2016-05-27T09:47:55.568Z,78.75
2016-05-27T09:48:55.571Z,78.65
2016-05-27T09:49:55.714Z,78.45
2016-05-27T09:50:55.732Z,78.27
2016-05-27T09:51:55.689Z,78.45
2016-05-27T09:52:55.691Z,77.69
2016-05-27T09:53:55.678Z,78.27
2016-05-27T09:54:55.681Z,78.36
2016-05-27T09:55:55.668Z,77.98
2016-05-27T09:56:55.655Z,78.55
2016-05-27T09:57:55.642Z,78.55
2016-05-27T09:58:55.628Z,77.5
2016-05-27T09:59:55.632Z,77.59
2016-05-27T10:00:55.634Z,77.01
2016-05-27T10:01:55.606Z,76.92
2016-05-27T10:02:55.593Z,78.55
2016-05-27T10:03:55.596Z,78.94
2016-05-27T10:04:55.441Z,78.69
2016-05-27T10:05:55.586Z,78.88
2016-05-27T10:06:55.573Z,77.44
2016-05-27T10:07:55.560Z,77.98
2016-05-27T10:08:55.390Z,78.88
2016-05-27T10:09:55.533Z,77.15
2016-05-27T10:10:55.520Z,76.86
2016-05-27T10:11:55.538Z,76.67
2016-05-27T10:12:55.371Z,76.86
2016-05-27T10:13:55.498Z,76.67
2016-05-27T10:14:55.501Z,76.19
2016-05-27T10:15:55.487Z,76.09
2016-05-27T10:16:55.490Z,75.62
2016-05-27T10:17:55.462Z,75.9
2016-05-27T10:18:55.668Z,75.27
2016-05-27T10:19:55.451Z,76.04
2016-05-27T10:20:55.438Z,75.94
2016-05-27T10:21:55.440Z,77.09
2016-05-27T10:22:55.443Z,75.4
2016-05-27T10:23:55.415Z,74.05
2016-05-27T10:24:55.309Z,73.96
2016-05-27T10:25:55.405Z,75.59
2016-05-27T10:26:55.408Z,75.4
2016-05-27T10:27:55.395Z,72.9
2016-05-27T10:28:55.381Z,72.61
2016-05-27T10:29:55.369Z,73.38
2016-05-27T10:30:55.372Z,73.22
2016-05-27T10:31:55.202Z,74.54
2016-05-27T10:32:55.377Z,73.51
2016-05-27T10:33:55.348Z,73.03
2016-05-27T10:34:55.725Z,74.09
2016-05-27T10:35:55.338Z,73.51
2016-05-27T10:36:55.325Z,71.4
2016-05-27T10:37:55.312Z,72.97
2016-05-27T10:38:55.331Z,71.78
2016-05-27T10:39:55.302Z,71.11
2016-05-27T10:40:55.304Z,71.88
2016-05-27T10:41:55.292Z,71.3
2016-05-27T10:42:56.763Z,71.2
2016-05-27T10:43:55.266Z,71.62
2016-05-27T10:44:55.269Z,70.09
2016-05-27T10:45:55.271Z,70.37
2016-05-27T10:46:55.258Z,72.88
2016-05-27T10:48:00.479Z,72.11
2016-05-27T10:48:55.248Z,70.95
2016-05-27T10:49:55.234Z,71.81
2016-05-27T10:50:55.237Z,71.66
2016-05-27T10:51:55.226Z,71.85
2016-05-27T10:52:55.337Z,70.21
2016-05-27T10:53:55.214Z,71.28
2016-05-27T10:54:55.217Z,68.38
2016-05-27T10:55:55.204Z,69.25
2016-05-27T10:56:55.248Z,68.48
2016-05-27T10:57:55.230Z,69.64
2016-05-27T10:58:55.274Z,68.52
2016-05-27T10:59:55.270Z,68
2016-05-27T11:00:55.299Z,68.87
2016-05-27T11:01:55.140Z,69.67
2016-05-27T11:02:55.323Z,68.61
2016-05-27T11:03:55.507Z,68.61
2016-05-27T11:04:55.940Z,68.84
2016-05-27T11:05:55.656Z,67.68
2016-05-27T11:06:55.303Z,65.75
2016-05-27T11:07:55.309Z,67.1
2016-05-27T11:08:55.315Z,67.23
2016-05-27T11:09:55.305Z,64.92
2016-05-27T11:10:55.156Z,65.43
2016-05-27T11:11:55.300Z,64.95
2016-05-27T11:12:55.304Z,64.18
2016-05-27T11:13:55.291Z,66.3
2016-05-27T11:14:55.296Z,65.14
2016-05-27T11:15:55.378Z,63.79
2016-05-27T11:16:55.319Z,63.73
2016-05-27T11:17:55.275Z,62.18
2016-05-27T11:18:55.105Z,62.86
2016-05-27T11:19:55.796Z,63.34
2016-05-27T11:20:57.987Z,63.15
2016-05-27T11:21:55.271Z,62.28
2016-05-27T11:22:55.290Z,63.47
2016-05-27T11:23:55.090Z,59.08
2016-05-27T11:24:55.093Z,58.04
2016-05-27T11:25:56.644Z,58.53
2016-05-27T11:26:55.083Z,58.24
2016-05-27T11:27:55.086Z,57.56
2016-05-27T11:28:55.244Z,59.5
2016-05-27T11:29:55.232Z,57.44
2016-05-27T11:30:59.156Z,57.76
2016-05-27T11:31:55.221Z,54.27
2016-05-27T11:32:55.287Z,56.98
2016-05-27T11:33:55.226Z,59.72
2016-05-27T11:34:55.761Z,55.1
2016-05-27T11:35:56.420Z,52.71
2016-05-27T11:36:55.234Z,51.54
2016-05-27T11:37:55.269Z,53.09
2016-05-27T11:38:55.224Z,54.16
2016-05-27T11:39:55.227Z,51.37
2016-05-27T11:40:56.809Z,51.76
2016-05-27T11:41:55.076Z,49.85
2016-05-27T11:42:55.235Z,50.04
2016-05-27T11:43:55.223Z,47.06
2016-05-27T11:44:55.225Z,50.46
2016-05-27T11:45:57.290Z,49.99
2016-05-27T11:46:55.231Z,47.98
2016-05-27T11:47:55.233Z,44.41
2016-05-27T11:48:55.236Z,45.67
2016-05-27T11:49:55.254Z,44.24
2016-05-27T11:50:55.241Z,42.6
2016-05-27T11:51:55.245Z,40.75
2016-05-27T11:52:55.262Z,43.29
2016-05-27T11:53:55.108Z,43.29
2016-05-27T11:54:55.267Z,43.77
2016-05-27T11:56:00.380Z,42.5
2016-05-27T11:56:55.272Z,43.29
2016-05-27T11:57:55.260Z,43.38
2016-05-27T11:58:55.263Z,42.29
2016-05-27T11:59:55.280Z,42.68
2016-05-27T12:00:58.050Z,42.39
2016-05-27T12:01:55.286Z,41.98
2016-05-27T12:02:55.274Z,41.98
2016-05-27T12:03:55.291Z,41.2
2016-05-27T12:04:55.529Z,42.46
2016-05-27T12:05:57.360Z,44.19
2016-05-27T12:06:55.300Z,42.44
2016-05-27T12:07:55.318Z,41.18
2016-05-27T12:08:55.321Z,44.19
2016-05-27T12:09:55.307Z,44.29
2016-05-27T12:10:55.311Z,44.19
2016-05-27T12:11:55.329Z,44.85
2016-05-27T12:12:55.316Z,44.75
2016-05-27T12:13:55.318Z,44.19
2016-05-27T12:14:55.321Z,44.31
2016-05-27T12:15:55.324Z,44.82
2016-05-27T12:16:55.326Z,42.68
2016-05-27T12:17:55.329Z,40.17
2016-05-27T12:18:55.331Z,41.34
2016-05-27T12:19:55.179Z,42.04
2016-05-27T12:20:55.337Z,40.8
2016-05-27T12:21:55.183Z,40.62
2016-05-27T12:22:55.343Z,40.42
2016-05-27T12:23:55.345Z,39.47
2016-05-27T12:24:55.411Z,37.04
2016-05-27T12:25:55.195Z,36.96
2016-05-27T12:26:55.353Z,39.18
2016-05-27T12:27:55.356Z,39.96
2016-05-27T12:28:55.374Z,37.13
2016-05-27T12:29:55.361Z,36.19
2016-05-27T12:30:55.224Z,37.65
2016-05-27T12:31:55.382Z,38.53
2016-05-27T12:32:55.416Z,36.02
2016-05-27T12:33:55.388Z,36.21
2016-05-27T12:34:55.610Z,35.94
2016-05-27T12:35:55.410Z,35.55
2016-05-27T12:36:55.412Z,35.25
2016-05-27T12:37:55.415Z,34.68
2016-05-27T12:38:55.433Z,31.65
2016-05-27T12:39:55.420Z,34.58
2016-05-27T12:40:55.423Z,37.62
2016-05-27T12:41:55.441Z,34.19
2016-05-27T12:42:55.443Z,35.72
2016-05-27T12:43:56.368Z,35.72
2016-05-27T12:44:55.448Z,35.51
2016-05-27T12:45:55.295Z,36.08
2016-05-27T12:46:55.454Z,35.2
2016-05-27T12:47:55.457Z,36.43
2016-05-27T12:48:55.476Z,37.7
2016-05-27T12:49:56.087Z,38.26
2016-05-27T12:50:55.512Z,38.96
2016-05-27T12:51:55.484Z,38.18
2016-05-27T12:52:55.486Z,38.1
2016-05-27T12:53:55.645Z,37.45
2016-05-27T12:54:55.507Z,37.05